sensor_id;sensor_type;location;lat;lon;timestamp;P1;durP1;ratioP1;P2;durP2;ratioP2
24008;SDS011;12217;50.792;4.372;2022-12-29T00:02:09;1.75;;;1.63;;
24008;SDS011;12217;50.792;4.372;2022-12-29T00:04:35;1.52;;;1.40;;
24008;SDS011;12217;50.792;4.372;2022-12-29T00:07:01;2.70;;;1.60;;
24008;SDS011;12217;50.792;4.372;2022-12-29T00:09:29;2.35;;;1.50;;
24008;SDS011;12217;50.792;4.372;2022-12-29T00:11:55;1.67;;;1.30;;
24008;SDS011;12217;50.792;4.372;2022-12-29T00:14:21;4.00;;;1.52;;
24008;SDS011;12217;50.792;4.372;2022-12-29T00:17:05;2.10;;;1.25;;
24008;SDS011;12217;50.792;4.372;2022-12-29T00:19:31;2.67;;;1.30;;
24008;SDS011;12217;50.792;4.372;2022-12-29T00:22:15;3.65;;;1.25;;
24008;SDS011;12217;50.792;4.372;2022-12-29T00:25:00;4.00;;;1.10;;
24008;SDS011;12217;50.792;4.372;2022-12-29T00:27:44;4.30;;;1.05;;
24008;SDS011;12217;50.792;4.372;2022-12-29T00:30:29;3.63;;;1.15;;
24008;SDS011;12217;50.792;4.372;2022-12-29T00:33:17;2.10;;;1.08;;
24008;SDS011;12217;50.792;4.372;2022-12-29T00:36:13;3.60;;;1.00;;
24008;SDS011;12217;50.792;4.372;2022-12-29T00:38:53;3.75;;;1.52;;
24008;SDS011;12217;50.792;4.372;2022-12-29T00:41:42;3.53;;;1.05;;
24008;SDS011;12217;50.792;4.372;2022-12-29T00:44:26;2.83;;;1.15;;
24008;SDS011;12217;50.792;4.372;2022-12-29T00:46:52;2.45;;;1.20;;
24008;SDS011;12217;50.792;4.372;2022-12-29T00:49:17;4.10;;;1.23;;
24008;SDS011;12217;50.792;4.372;2022-12-29T00:51:56;2.13;;;1.00;;
24008;SDS011;12217;50.792;4.372;2022-12-29T00:54:25;4.30;;;1.33;;
24008;SDS011;12217;50.792;4.372;2022-12-29T00:56:52;5.63;;;1.30;;
24008;SDS011;12217;50.792;4.372;2022-12-29T00:59:18;2.25;;;1.00;;
24008;SDS011;12217;50.792;4.372;2022-12-29T01:01:44;4.93;;;1.35;;
24008;SDS011;12217;50.792;4.372;2022-12-29T01:04:11;4.65;;;2.00;;
24008;SDS011;12217;50.792;4.372;2022-12-29T01:06:38;3.25;;;1.05;;
24008;SDS011;12217;50.792;4.372;2022-12-29T01:09:04;3.33;;;1.23;;
24008;SDS011;12217;50.792;4.372;2022-12-29T01:11:49;3.80;;;1.42;;
24008;SDS011;12217;50.792;4.372;2022-12-29T01:14:15;4.22;;;1.45;;
24008;SDS011;12217;50.792;4.372;2022-12-29T01:16:42;2.92;;;1.23;;
24008;SDS011;12217;50.792;4.372;2022-12-29T01:19:07;4.93;;;1.20;;
24008;SDS011;12217;50.792;4.372;2022-12-29T01:21:33;3.67;;;1.25;;
24008;SDS011;12217;50.792;4.372;2022-12-29T01:23:59;5.28;;;1.48;;
24008;SDS011;12217;50.792;4.372;2022-12-29T01:26:24;3.60;;;1.70;;
24008;SDS011;12217;50.792;4.372;2022-12-29T01:28:50;1.92;;;1.27;;
24008;SDS011;12217;50.792;4.372;2022-12-29T01:31:16;3.97;;;1.67;;
24008;SDS011;12217;50.792;4.372;2022-12-29T01:33:42;5.28;;;1.65;;
24008;SDS011;12217;50.792;4.372;2022-12-29T01:36:09;4.68;;;1.83;;
24008;SDS011;12217;50.792;4.372;2022-12-29T01:38:36;2.45;;;1.27;;
24008;SDS011;12217;50.792;4.372;2022-12-29T01:41:03;5.03;;;1.60;;
24008;SDS011;12217;50.792;4.372;2022-12-29T01:48:59;3.25;;;1.55;;
24008;SDS011;12217;50.792;4.372;2022-12-29T01:51:33;3.35;;;1.90;;
24008;SDS011;12217;50.792;4.372;2022-12-29T01:54:17;4.03;;;1.85;;
24008;SDS011;12217;50.792;4.372;2022-12-29T01:56:50;3.13;;;1.10;;
24008;SDS011;12217;50.792;4.372;2022-12-29T01:59:18;4.63;;;1.27;;
24008;SDS011;12217;50.792;4.372;2022-12-29T02:01:47;1.52;;;0.90;;
24008;SDS011;12217;50.792;4.372;2022-12-29T02:04:14;1.10;;;0.80;;
24008;SDS011;12217;50.792;4.372;2022-12-29T02:06:47;1.50;;;0.77;;
24008;SDS011;12217;50.792;4.372;2022-12-29T02:09:17;2.03;;;0.80;;
24008;SDS011;12217;50.792;4.372;2022-12-29T02:11:44;2.90;;;1.00;;
24008;SDS011;12217;50.792;4.372;2022-12-29T02:14:10;2.28;;;0.93;;
24008;SDS011;12217;50.792;4.372;2022-12-29T02:24:51;2.20;;;0.88;;
24008;SDS011;12217;50.792;4.372;2022-12-29T02:33:56;2.63;;;1.10;;
24008;SDS011;12217;50.792;4.372;2022-12-29T02:44:46;1.95;;;1.10;;
24008;SDS011;12217;50.792;4.372;2022-12-29T02:50:22;5.00;;;0.80;;
24008;SDS011;12217;50.792;4.372;2022-12-29T02:53:00;3.53;;;0.70;;
24008;SDS011;12217;50.792;4.372;2022-12-29T02:55:29;2.47;;;0.70;;
24008;SDS011;12217;50.792;4.372;2022-12-29T03:03:42;1.52;;;0.70;;
24008;SDS011;12217;50.792;4.372;2022-12-29T03:12:12;4.03;;;0.93;;
24008;SDS011;12217;50.792;4.372;2022-12-29T03:15:59;1.85;;;0.75;;
24008;SDS011;12217;50.792;4.372;2022-12-29T03:21:27;4.55;;;1.02;;
24008;SDS011;12217;50.792;4.372;2022-12-29T03:24:34;3.28;;;0.98;;
24008;SDS011;12217;50.792;4.372;2022-12-29T03:27:04;1.00;;;0.70;;
24008;SDS011;12217;50.792;4.372;2022-12-29T03:29:33;3.70;;;0.90;;
24008;SDS011;12217;50.792;4.372;2022-12-29T03:32:04;3.28;;;0.80;;
24008;SDS011;12217;50.792;4.372;2022-12-29T03:34:32;3.35;;;1.10;;
24008;SDS011;12217;50.792;4.372;2022-12-29T03:37:05;3.20;;;0.90;;
24008;SDS011;12217;50.792;4.372;2022-12-29T03:39:35;4.45;;;1.05;;
24008;SDS011;12217;50.792;4.372;2022-12-29T03:42:02;5.60;;;1.23;;
24008;SDS011;12217;50.792;4.372;2022-12-29T03:44:38;4.57;;;1.27;;
24008;SDS011;12217;50.792;4.372;2022-12-29T03:47:06;4.40;;;1.40;;
24008;SDS011;12217;50.792;4.372;2022-12-29T03:49:32;4.28;;;1.27;;
24008;SDS011;12217;50.792;4.372;2022-12-29T03:51:57;4.13;;;1.45;;
24008;SDS011;12217;50.792;4.372;2022-12-29T03:54:23;3.85;;;1.20;;
24008;SDS011;12217;50.792;4.372;2022-12-29T03:56:49;3.40;;;1.17;;
24008;SDS011;12217;50.792;4.372;2022-12-29T03:59:15;7.03;;;1.27;;
24008;SDS011;12217;50.792;4.372;2022-12-29T04:01:40;3.50;;;1.08;;
24008;SDS011;12217;50.792;4.372;2022-12-29T04:04:06;4.72;;;1.15;;
24008;SDS011;12217;50.792;4.372;2022-12-29T04:06:32;8.60;;;1.00;;
24008;SDS011;12217;50.792;4.372;2022-12-29T04:08:57;3.22;;;0.85;;
24008;SDS011;12217;50.792;4.372;2022-12-29T04:11:23;5.97;;;1.35;;
24008;SDS011;12217;50.792;4.372;2022-12-29T04:13:49;5.15;;;1.13;;
24008;SDS011;12217;50.792;4.372;2022-12-29T04:16:14;7.03;;;1.27;;
24008;SDS011;12217;50.792;4.372;2022-12-29T04:18:40;5.25;;;1.10;;
24008;SDS011;12217;50.792;4.372;2022-12-29T04:21:06;2.30;;;1.45;;
24008;SDS011;12217;50.792;4.372;2022-12-29T04:23:33;7.60;;;1.30;;
24008;SDS011;12217;50.792;4.372;2022-12-29T04:26:00;6.13;;;1.20;;
24008;SDS011;12217;50.792;4.372;2022-12-29T04:28:26;3.50;;;1.23;;
24008;SDS011;12217;50.792;4.372;2022-12-29T04:30:52;2.85;;;0.90;;
24008;SDS011;12217;50.792;4.372;2022-12-29T04:33:18;8.68;;;1.33;;
24008;SDS011;12217;50.792;4.372;2022-12-29T04:35:44;3.83;;;1.05;;
24008;SDS011;12217;50.792;4.372;2022-12-29T04:38:11;4.45;;;0.90;;
24008;SDS011;12217;50.792;4.372;2022-12-29T04:40:40;4.68;;;1.20;;
24008;SDS011;12217;50.792;4.372;2022-12-29T04:43:06;3.30;;;1.10;;
24008;SDS011;12217;50.792;4.372;2022-12-29T04:45:33;7.53;;;1.33;;
24008;SDS011;12217;50.792;4.372;2022-12-29T04:47:58;7.00;;;1.10;;
24008;SDS011;12217;50.792;4.372;2022-12-29T04:50:24;5.22;;;1.10;;
24008;SDS011;12217;50.792;4.372;2022-12-29T04:52:50;4.40;;;1.65;;
24008;SDS011;12217;50.792;4.372;2022-12-29T04:55:15;4.93;;;1.25;;
24008;SDS011;12217;50.792;4.372;2022-12-29T04:57:41;7.50;;;1.50;;
24008;SDS011;12217;50.792;4.372;2022-12-29T05:00:07;6.78;;;1.50;;
24008;SDS011;12217;50.792;4.372;2022-12-29T05:02:34;8.48;;;1.23;;
24008;SDS011;12217;50.792;4.372;2022-12-29T05:05:00;4.70;;;1.15;;
24008;SDS011;12217;50.792;4.372;2022-12-29T05:07:26;5.63;;;1.35;;
24008;SDS011;12217;50.792;4.372;2022-12-29T05:09:52;8.02;;;1.60;;
24008;SDS011;12217;50.792;4.372;2022-12-29T05:12:17;3.90;;;1.13;;
24008;SDS011;12217;50.792;4.372;2022-12-29T05:14:43;6.80;;;1.40;;
24008;SDS011;12217;50.792;4.372;2022-12-29T05:17:08;6.18;;;1.30;;
24008;SDS011;12217;50.792;4.372;2022-12-29T05:19:34;6.45;;;1.40;;
24008;SDS011;12217;50.792;4.372;2022-12-29T05:22:00;5.20;;;1.10;;
24008;SDS011;12217;50.792;4.372;2022-12-29T05:24:25;6.95;;;1.55;;
24008;SDS011;12217;50.792;4.372;2022-12-29T05:26:51;7.80;;;1.40;;
24008;SDS011;12217;50.792;4.372;2022-12-29T05:29:17;7.30;;;1.38;;
24008;SDS011;12217;50.792;4.372;2022-12-29T05:31:42;7.63;;;1.45;;
24008;SDS011;12217;50.792;4.372;2022-12-29T05:34:10;10.10;;;1.63;;
24008;SDS011;12217;50.792;4.372;2022-12-29T05:36:36;9.52;;;1.73;;
24008;SDS011;12217;50.792;4.372;2022-12-29T05:39:02;7.28;;;1.70;;
24008;SDS011;12217;50.792;4.372;2022-12-29T05:41:28;8.45;;;1.40;;
24008;SDS011;12217;50.792;4.372;2022-12-29T05:43:53;7.38;;;1.65;;
24008;SDS011;12217;50.792;4.372;2022-12-29T05:46:19;7.43;;;2.08;;
24008;SDS011;12217;50.792;4.372;2022-12-29T05:48:45;9.98;;;1.70;;
24008;SDS011;12217;50.792;4.372;2022-12-29T05:51:10;5.97;;;1.63;;
24008;SDS011;12217;50.792;4.372;2022-12-29T05:53:36;8.48;;;1.48;;
24008;SDS011;12217;50.792;4.372;2022-12-29T05:56:02;9.75;;;1.48;;
24008;SDS011;12217;50.792;4.372;2022-12-29T05:58:27;12.52;;;1.88;;
24008;SDS011;12217;50.792;4.372;2022-12-29T06:00:53;7.72;;;1.80;;
24008;SDS011;12217;50.792;4.372;2022-12-29T06:03:19;10.15;;;1.92;;
24008;SDS011;12217;50.792;4.372;2022-12-29T06:05:47;10.82;;;1.90;;
24008;SDS011;12217;50.792;4.372;2022-12-29T06:08:13;8.48;;;1.55;;
24008;SDS011;12217;50.792;4.372;2022-12-29T06:10:38;9.98;;;2.05;;
24008;SDS011;12217;50.792;4.372;2022-12-29T06:13:04;10.98;;;1.92;;
24008;SDS011;12217;50.792;4.372;2022-12-29T06:15:31;8.35;;;1.52;;
24008;SDS011;12217;50.792;4.372;2022-12-29T06:17:57;9.65;;;1.50;;
24008;SDS011;12217;50.792;4.372;2022-12-29T06:20:23;7.97;;;1.60;;
24008;SDS011;12217;50.792;4.372;2022-12-29T06:22:48;9.90;;;1.73;;
24008;SDS011;12217;50.792;4.372;2022-12-29T06:25:14;7.78;;;1.42;;
24008;SDS011;12217;50.792;4.372;2022-12-29T06:27:40;9.63;;;1.80;;
24008;SDS011;12217;50.792;4.372;2022-12-29T06:30:06;9.18;;;1.63;;
24008;SDS011;12217;50.792;4.372;2022-12-29T06:32:33;8.35;;;1.90;;
24008;SDS011;12217;50.792;4.372;2022-12-29T06:35:00;8.93;;;1.65;;
24008;SDS011;12217;50.792;4.372;2022-12-29T06:37:27;7.38;;;1.30;;
24008;SDS011;12217;50.792;4.372;2022-12-29T06:39:52;9.40;;;2.20;;
24008;SDS011;12217;50.792;4.372;2022-12-29T06:42:18;11.80;;;1.92;;
24008;SDS011;12217;50.792;4.372;2022-12-29T06:44:43;9.00;;;1.75;;
24008;SDS011;12217;50.792;4.372;2022-12-29T06:47:09;8.38;;;1.98;;
24008;SDS011;12217;50.792;4.372;2022-12-29T06:49:35;7.60;;;1.50;;
24008;SDS011;12217;50.792;4.372;2022-12-29T06:52:01;10.15;;;2.13;;
24008;SDS011;12217;50.792;4.372;2022-12-29T06:54:29;9.43;;;1.73;;
24008;SDS011;12217;50.792;4.372;2022-12-29T06:56:55;13.07;;;1.83;;
24008;SDS011;12217;50.792;4.372;2022-12-29T06:59:21;8.48;;;1.58;;
24008;SDS011;12217;50.792;4.372;2022-12-29T07:01:46;8.15;;;2.08;;
24008;SDS011;12217;50.792;4.372;2022-12-29T07:04:12;7.82;;;1.52;;
24008;SDS011;12217;50.792;4.372;2022-12-29T07:06:38;7.60;;;1.85;;
24008;SDS011;12217;50.792;4.372;2022-12-29T07:09:05;6.53;;;1.90;;
24008;SDS011;12217;50.792;4.372;2022-12-29T07:11:32;11.27;;;1.88;;
24008;SDS011;12217;50.792;4.372;2022-12-29T07:13:58;10.02;;;2.53;;
24008;SDS011;12217;50.792;4.372;2022-12-29T07:16:24;10.45;;;2.00;;
24008;SDS011;12217;50.792;4.372;2022-12-29T07:18:49;9.63;;;1.70;;
24008;SDS011;12217;50.792;4.372;2022-12-29T07:21:16;6.82;;;1.38;;
24008;SDS011;12217;50.792;4.372;2022-12-29T07:23:42;11.32;;;1.88;;
24008;SDS011;12217;50.792;4.372;2022-12-29T07:26:09;9.63;;;1.85;;
24008;SDS011;12217;50.792;4.372;2022-12-29T07:28:38;16.83;;;2.10;;
24008;SDS011;12217;50.792;4.372;2022-12-29T07:31:04;12.80;;;2.25;;
24008;SDS011;12217;50.792;4.372;2022-12-29T07:33:31;11.88;;;2.05;;
24008;SDS011;12217;50.792;4.372;2022-12-29T07:35:57;11.75;;;2.08;;
24008;SDS011;12217;50.792;4.372;2022-12-29T07:38:24;10.95;;;2.20;;
24008;SDS011;12217;50.792;4.372;2022-12-29T07:40:49;9.48;;;1.90;;
24008;SDS011;12217;50.792;4.372;2022-12-29T07:43:15;11.48;;;2.00;;
24008;SDS011;12217;50.792;4.372;2022-12-29T07:45:41;11.07;;;2.08;;
24008;SDS011;12217;50.792;4.372;2022-12-29T07:48:07;8.90;;;1.73;;
24008;SDS011;12217;50.792;4.372;2022-12-29T07:50:36;9.93;;;1.83;;
24008;SDS011;12217;50.792;4.372;2022-12-29T07:53:02;9.43;;;1.70;;
24008;SDS011;12217;50.792;4.372;2022-12-29T07:55:28;16.00;;;2.40;;
24008;SDS011;12217;50.792;4.372;2022-12-29T07:57:55;17.83;;;2.40;;
24008;SDS011;12217;50.792;4.372;2022-12-29T08:00:21;10.93;;;2.53;;
24008;SDS011;12217;50.792;4.372;2022-12-29T08:02:47;9.43;;;1.90;;
24008;SDS011;12217;50.792;4.372;2022-12-29T08:05:13;10.18;;;1.90;;
24008;SDS011;12217;50.792;4.372;2022-12-29T08:07:39;10.02;;;1.77;;
24008;SDS011;12217;50.792;4.372;2022-12-29T08:10:05;9.48;;;1.92;;
24008;SDS011;12217;50.792;4.372;2022-12-29T08:12:31;12.50;;;2.05;;
24008;SDS011;12217;50.792;4.372;2022-12-29T08:14:57;13.40;;;2.58;;
24008;SDS011;12217;50.792;4.372;2022-12-29T08:17:22;10.35;;;2.22;;
24008;SDS011;12217;50.792;4.372;2022-12-29T08:19:48;10.05;;;2.05;;
24008;SDS011;12217;50.792;4.372;2022-12-29T08:22:14;9.63;;;2.45;;
24008;SDS011;12217;50.792;4.372;2022-12-29T08:24:40;8.52;;;1.73;;
24008;SDS011;12217;50.792;4.372;2022-12-29T08:27:06;9.05;;;2.00;;
24008;SDS011;12217;50.792;4.372;2022-12-29T08:29:31;8.38;;;2.03;;
24008;SDS011;12217;50.792;4.372;2022-12-29T08:31:57;10.13;;;2.25;;
24008;SDS011;12217;50.792;4.372;2022-12-29T08:34:22;12.88;;;2.10;;
24008;SDS011;12217;50.792;4.372;2022-12-29T08:36:48;12.73;;;2.17;;
24008;SDS011;12217;50.792;4.372;2022-12-29T08:39:14;11.15;;;1.95;;
24008;SDS011;12217;50.792;4.372;2022-12-29T08:41:40;7.82;;;1.88;;
24008;SDS011;12217;50.792;4.372;2022-12-29T08:44:05;8.88;;;1.95;;
24008;SDS011;12217;50.792;4.372;2022-12-29T08:46:31;5.78;;;1.83;;
24008;SDS011;12217;50.792;4.372;2022-12-29T08:48:56;13.00;;;2.13;;
24008;SDS011;12217;50.792;4.372;2022-12-29T08:51:22;15.95;;;1.80;;
24008;SDS011;12217;50.792;4.372;2022-12-29T08:53:48;9.63;;;2.30;;
24008;SDS011;12217;50.792;4.372;2022-12-29T08:56:13;7.65;;;1.90;;
24008;SDS011;12217;50.792;4.372;2022-12-29T08:58:39;11.25;;;2.10;;
24008;SDS011;12217;50.792;4.372;2022-12-29T09:01:05;13.48;;;2.08;;
24008;SDS011;12217;50.792;4.372;2022-12-29T09:03:31;13.07;;;2.25;;
24008;SDS011;12217;50.792;4.372;2022-12-29T09:05:57;11.45;;;2.17;;
24008;SDS011;12217;50.792;4.372;2022-12-29T09:08:23;13.45;;;2.55;;
24008;SDS011;12217;50.792;4.372;2022-12-29T09:10:49;8.70;;;2.33;;
24008;SDS011;12217;50.792;4.372;2022-12-29T09:13:15;15.13;;;2.65;;
24008;SDS011;12217;50.792;4.372;2022-12-29T09:15:41;15.45;;;2.63;;
24008;SDS011;12217;50.792;4.372;2022-12-29T09:18:08;12.38;;;2.70;;
24008;SDS011;12217;50.792;4.372;2022-12-29T09:20:34;13.23;;;2.40;;
24008;SDS011;12217;50.792;4.372;2022-12-29T09:23:00;9.65;;;1.80;;
24008;SDS011;12217;50.792;4.372;2022-12-29T09:25:26;13.80;;;2.30;;
24008;SDS011;12217;50.792;4.372;2022-12-29T09:27:52;17.05;;;2.08;;
24008;SDS011;12217;50.792;4.372;2022-12-29T09:30:19;16.23;;;3.13;;
24008;SDS011;12217;50.792;4.372;2022-12-29T09:32:46;13.15;;;2.35;;
24008;SDS011;12217;50.792;4.372;2022-12-29T09:35:16;13.63;;;2.88;;
24008;SDS011;12217;50.792;4.372;2022-12-29T09:37:42;10.82;;;2.25;;
24008;SDS011;12217;50.792;4.372;2022-12-29T09:40:20;10.27;;;2.05;;
24008;SDS011;12217;50.792;4.372;2022-12-29T09:45:44;14.25;;;2.58;;
24008;SDS011;12217;50.792;4.372;2022-12-29T09:48:19;14.50;;;2.30;;
24008;SDS011;12217;50.792;4.372;2022-12-29T09:50:56;10.98;;;2.20;;
24008;SDS011;12217;50.792;4.372;2022-12-29T09:53:30;11.85;;;2.13;;
24008;SDS011;12217;50.792;4.372;2022-12-29T09:56:02;15.63;;;2.72;;
24008;SDS011;12217;50.792;4.372;2022-12-29T09:58:32;12.23;;;2.42;;
24008;SDS011;12217;50.792;4.372;2022-12-29T10:03:50;12.55;;;2.38;;
24008;SDS011;12217;50.792;4.372;2022-12-29T10:23:02;15.93;;;2.65;;
24008;SDS011;12217;50.792;4.372;2022-12-29T10:25:31;10.63;;;2.40;;
24008;SDS011;12217;50.792;4.372;2022-12-29T10:28:01;14.05;;;2.38;;
24008;SDS011;12217;50.792;4.372;2022-12-29T10:30:35;11.55;;;2.10;;
24008;SDS011;12217;50.792;4.372;2022-12-29T10:33:02;12.18;;;2.45;;
24008;SDS011;12217;50.792;4.372;2022-12-29T10:35:34;8.60;;;2.30;;
24008;SDS011;12217;50.792;4.372;2022-12-29T10:41:02;16.17;;;2.38;;
24008;SDS011;12217;50.792;4.372;2022-12-29T10:43:44;11.30;;;2.20;;
24008;SDS011;12217;50.792;4.372;2022-12-29T10:46:28;15.80;;;2.60;;
24008;SDS011;12217;50.792;4.372;2022-12-29T10:48:57;15.75;;;2.28;;
24008;SDS011;12217;50.792;4.372;2022-12-29T10:51:31;12.23;;;2.25;;
24008;SDS011;12217;50.792;4.372;2022-12-29T10:58:58;13.38;;;2.58;;
24008;SDS011;12217;50.792;4.372;2022-12-29T11:01:32;8.02;;;2.08;;
24008;SDS011;12217;50.792;4.372;2022-12-29T11:04:16;13.68;;;2.20;;
24008;SDS011;12217;50.792;4.372;2022-12-29T11:06:57;13.65;;;2.65;;
24008;SDS011;12217;50.792;4.372;2022-12-29T11:09:25;9.82;;;2.30;;
24008;SDS011;12217;50.792;4.372;2022-12-29T11:11:54;13.73;;;2.67;;
24008;SDS011;12217;50.792;4.372;2022-12-29T11:14:30;11.45;;;2.15;;
24008;SDS011;12217;50.792;4.372;2022-12-29T11:17:03;10.38;;;1.85;;
24008;SDS011;12217;50.792;4.372;2022-12-29T11:19:29;14.65;;;2.78;;
24008;SDS011;12217;50.792;4.372;2022-12-29T11:24:52;16.17;;;2.83;;
24008;SDS011;12217;50.792;4.372;2022-12-29T11:29:50;12.63;;;2.35;;
24008;SDS011;12217;50.792;4.372;2022-12-29T11:32:21;11.30;;;2.53;;
24008;SDS011;12217;50.792;4.372;2022-12-29T11:34:49;16.15;;;2.90;;
24008;SDS011;12217;50.792;4.372;2022-12-29T11:37:16;9.75;;;2.30;;
24008;SDS011;12217;50.792;4.372;2022-12-29T11:45:07;14.10;;;2.80;;
24008;SDS011;12217;50.792;4.372;2022-12-29T11:47:42;13.10;;;2.25;;
24008;SDS011;12217;50.792;4.372;2022-12-29T11:50:16;11.82;;;2.20;;
24008;SDS011;12217;50.792;4.372;2022-12-29T11:52:47;14.18;;;2.42;;
24008;SDS011;12217;50.792;4.372;2022-12-29T11:55:20;8.38;;;2.33;;
24008;SDS011;12217;50.792;4.372;2022-12-29T11:57:49;13.75;;;2.38;;
24008;SDS011;12217;50.792;4.372;2022-12-29T12:00:21;13.35;;;2.10;;
24008;SDS011;12217;50.792;4.372;2022-12-29T12:03:34;13.57;;;2.88;;
24008;SDS011;12217;50.792;4.372;2022-12-29T12:05:53;13.60;;;2.95;;
24008;SDS011;12217;50.792;4.372;2022-12-29T12:16:15;13.23;;;2.42;;
24008;SDS011;12217;50.792;4.372;2022-12-29T12:18:48;16.75;;;2.80;;
24008;SDS011;12217;50.792;4.372;2022-12-29T12:21:37;12.82;;;2.28;;
24008;SDS011;12217;50.792;4.372;2022-12-29T12:26:57;12.85;;;2.45;;
24008;SDS011;12217;50.792;4.372;2022-12-29T12:35:24;13.32;;;2.85;;
24008;SDS011;12217;50.792;4.372;2022-12-29T12:46:14;12.02;;;2.50;;
24008;SDS011;12217;50.792;4.372;2022-12-29T12:51:46;15.38;;;3.20;;
24008;SDS011;12217;50.792;4.372;2022-12-29T12:54:35;10.90;;;2.28;;
24008;SDS011;12217;50.792;4.372;2022-12-29T13:00:12;14.02;;;2.55;;
24008;SDS011;12217;50.792;4.372;2022-12-29T13:02:59;12.30;;;2.72;;
24008;SDS011;12217;50.792;4.372;2022-12-29T13:14:34;18.00;;;2.42;;
24008;SDS011;12217;50.792;4.372;2022-12-29T13:25:41;9.52;;;2.38;;
24008;SDS011;12217;50.792;4.372;2022-12-29T13:28:22;9.95;;;2.40;;
24008;SDS011;12217;50.792;4.372;2022-12-29T13:31:04;15.63;;;2.85;;
24008;SDS011;12217;50.792;4.372;2022-12-29T13:36:37;15.63;;;2.60;;
24008;SDS011;12217;50.792;4.372;2022-12-29T13:39:17;9.27;;;2.25;;
24008;SDS011;12217;50.792;4.372;2022-12-29T13:41:49;12.65;;;2.92;;
24008;SDS011;12217;50.792;4.372;2022-12-29T13:44:36;12.77;;;2.63;;
24008;SDS011;12217;50.792;4.372;2022-12-29T13:47:06;9.15;;;2.60;;
24008;SDS011;12217;50.792;4.372;2022-12-29T13:49:45;10.48;;;2.40;;
24008;SDS011;12217;50.792;4.372;2022-12-29T13:52:18;20.20;;;2.97;;
24008;SDS011;12217;50.792;4.372;2022-12-29T13:57:51;14.67;;;2.30;;
24008;SDS011;12217;50.792;4.372;2022-12-29T14:00:20;14.15;;;3.03;;
24008;SDS011;12217;50.792;4.372;2022-12-29T14:03:01;19.52;;;2.90;;
24008;SDS011;12217;50.792;4.372;2022-12-29T14:05:44;14.98;;;2.70;;
24008;SDS011;12217;50.792;4.372;2022-12-29T14:08:27;17.75;;;3.38;;
24008;SDS011;12217;50.792;4.372;2022-12-29T14:10:52;16.50;;;2.78;;
24008;SDS011;12217;50.792;4.372;2022-12-29T14:13:19;16.60;;;2.80;;
24008;SDS011;12217;50.792;4.372;2022-12-29T14:15:50;16.85;;;2.80;;
24008;SDS011;12217;50.792;4.372;2022-12-29T14:18:20;16.60;;;2.85;;
24008;SDS011;12217;50.792;4.372;2022-12-29T14:20:52;16.83;;;3.45;;
24008;SDS011;12217;50.792;4.372;2022-12-29T14:23:34;14.10;;;2.63;;
24008;SDS011;12217;50.792;4.372;2022-12-29T14:28:33;15.90;;;2.95;;
24008;SDS011;12217;50.792;4.372;2022-12-29T14:31:04;15.02;;;3.03;;
24008;SDS011;12217;50.792;4.372;2022-12-29T14:44:45;14.85;;;2.42;;
24008;SDS011;12217;50.792;4.372;2022-12-29T14:47:27;12.13;;;3.10;;
24008;SDS011;12217;50.792;4.372;2022-12-29T14:55:45;10.77;;;2.47;;
24008;SDS011;12217;50.792;4.372;2022-12-29T14:58:28;9.02;;;2.53;;
24008;SDS011;12217;50.792;4.372;2022-12-29T15:00:57;13.13;;;2.65;;
24008;SDS011;12217;50.792;4.372;2022-12-29T15:06:08;12.23;;;2.45;;
24008;SDS011;12217;50.792;4.372;2022-12-29T15:16:53;8.52;;;1.95;;
24008;SDS011;12217;50.792;4.372;2022-12-29T15:19:22;9.23;;;1.80;;
24008;SDS011;12217;50.792;4.372;2022-12-29T15:21:48;6.60;;;1.70;;
24008;SDS011;12217;50.792;4.372;2022-12-29T15:24:14;6.32;;;1.50;;
24008;SDS011;12217;50.792;4.372;2022-12-29T15:26:41;7.68;;;2.10;;
24008;SDS011;12217;50.792;4.372;2022-12-29T15:29:54;5.40;;;1.80;;
24008;SDS011;12217;50.792;4.372;2022-12-29T15:32:09;5.55;;;1.98;;
24008;SDS011;12217;50.792;4.372;2022-12-29T15:34:41;5.05;;;1.70;;
24008;SDS011;12217;50.792;4.372;2022-12-29T15:37:17;8.98;;;2.65;;
24008;SDS011;12217;50.792;4.372;2022-12-29T15:39:45;7.55;;;1.92;;
24008;SDS011;12217;50.792;4.372;2022-12-29T15:45:12;7.47;;;1.88;;
24008;SDS011;12217;50.792;4.372;2022-12-29T15:47:41;11.52;;;2.83;;
24008;SDS011;12217;50.792;4.372;2022-12-29T15:50:13;6.90;;;2.30;;
24008;SDS011;12217;50.792;4.372;2022-12-29T15:52:52;6.97;;;2.35;;
24008;SDS011;12217;50.792;4.372;2022-12-29T15:55:19;9.52;;;2.38;;
24008;SDS011;12217;50.792;4.372;2022-12-29T15:57:49;10.55;;;2.65;;
24008;SDS011;12217;50.792;4.372;2022-12-29T16:02:55;10.75;;;2.80;;
24008;SDS011;12217;50.792;4.372;2022-12-29T16:05:23;13.05;;;3.10;;
24008;SDS011;12217;50.792;4.372;2022-12-29T16:10:40;15.35;;;3.70;;
24008;SDS011;12217;50.792;4.372;2022-12-29T16:15:56;18.05;;;4.30;;
24008;SDS011;12217;50.792;4.372;2022-12-29T16:18:33;17.52;;;3.95;;
24008;SDS011;12217;50.792;4.372;2022-12-29T16:21:00;16.63;;;4.32;;
24008;SDS011;12217;50.792;4.372;2022-12-29T16:23:28;20.85;;;5.90;;
24008;SDS011;12217;50.792;4.372;2022-12-29T16:25:55;23.13;;;4.95;;
24008;SDS011;12217;50.792;4.372;2022-12-29T16:31:23;15.55;;;4.35;;
24008;SDS011;12217;50.792;4.372;2022-12-29T16:33:50;17.80;;;4.47;;
24008;SDS011;12217;50.792;4.372;2022-12-29T16:39:49;19.52;;;4.07;;
24008;SDS011;12217;50.792;4.372;2022-12-29T16:41:57;15.52;;;3.85;;
24008;SDS011;12217;50.792;4.372;2022-12-29T16:44:27;15.68;;;4.70;;
24008;SDS011;12217;50.792;4.372;2022-12-29T16:47:27;13.95;;;3.80;;
24008;SDS011;12217;50.792;4.372;2022-12-29T16:49:48;16.92;;;3.85;;
24008;SDS011;12217;50.792;4.372;2022-12-29T16:52:28;22.00;;;4.00;;
24008;SDS011;12217;50.792;4.372;2022-12-29T16:54:58;17.85;;;4.60;;
24008;SDS011;12217;50.792;4.372;2022-12-29T16:57:30;16.55;;;3.70;;
24008;SDS011;12217;50.792;4.372;2022-12-29T16:59:59;19.38;;;3.40;;
24008;SDS011;12217;50.792;4.372;2022-12-29T17:02:29;19.42;;;3.30;;
24008;SDS011;12217;50.792;4.372;2022-12-29T17:04:56;18.23;;;3.72;;
24008;SDS011;12217;50.792;4.372;2022-12-29T17:07:23;20.30;;;3.88;;
24008;SDS011;12217;50.792;4.372;2022-12-29T17:09:50;15.55;;;3.92;;
24008;SDS011;12217;50.792;4.372;2022-12-29T17:12:19;14.30;;;3.33;;
24008;SDS011;12217;50.792;4.372;2022-12-29T17:14:54;18.38;;;3.75;;
24008;SDS011;12217;50.792;4.372;2022-12-29T17:17:57;21.05;;;4.00;;
24008;SDS011;12217;50.792;4.372;2022-12-29T17:20:28;21.98;;;4.03;;
24008;SDS011;12217;50.792;4.372;2022-12-29T17:22:55;21.00;;;3.70;;
24008;SDS011;12217;50.792;4.372;2022-12-29T17:25:35;11.98;;;2.92;;
24008;SDS011;12217;50.792;4.372;2022-12-29T17:30:42;14.75;;;3.20;;
24008;SDS011;12217;50.792;4.372;2022-12-29T17:33:18;16.55;;;3.80;;
24008;SDS011;12217;50.792;4.372;2022-12-29T17:35:44;16.35;;;3.63;;
24008;SDS011;12217;50.792;4.372;2022-12-29T17:38:17;12.73;;;3.30;;
24008;SDS011;12217;50.792;4.372;2022-12-29T17:40:43;15.32;;;2.85;;
24008;SDS011;12217;50.792;4.372;2022-12-29T17:43:10;9.07;;;2.45;;
24008;SDS011;12217;50.792;4.372;2022-12-29T17:45:38;12.52;;;3.00;;
24008;SDS011;12217;50.792;4.372;2022-12-29T17:48:10;16.92;;;2.78;;
24008;SDS011;12217;50.792;4.372;2022-12-29T17:50:37;11.88;;;2.70;;
24008;SDS011;12217;50.792;4.372;2022-12-29T17:53:09;15.60;;;3.20;;
24008;SDS011;12217;50.792;4.372;2022-12-29T17:55:37;12.77;;;2.67;;
24008;SDS011;12217;50.792;4.372;2022-12-29T17:58:25;14.30;;;3.13;;
24008;SDS011;12217;50.792;4.372;2022-12-29T18:00:52;10.82;;;3.28;;
24008;SDS011;12217;50.792;4.372;2022-12-29T18:03:32;16.33;;;3.72;;
24008;SDS011;12217;50.792;4.372;2022-12-29T18:06:03;12.90;;;3.55;;
24008;SDS011;12217;50.792;4.372;2022-12-29T18:08:33;13.95;;;3.15;;
24008;SDS011;12217;50.792;4.372;2022-12-29T18:11:00;17.45;;;3.50;;